createdAt,value
2019-05-09T00:27:23.885Z,9.77
2019-05-09T00:41:39.966Z,9.70
2019-05-09T01:10:25.250Z,9.61
2019-05-09T01:32:07.743Z,9.55
2019-05-09T01:37:09.704Z,9.48
2019-05-09T01:59:57.219Z,9.38
2019-05-09T02:05:39.527Z,9.43
2019-05-09T02:10:58.704Z,9.41
2019-05-09T02:16:48.715Z,9.39
2019-05-09T02:22:54.285Z,9.41
2019-05-09T02:37:58.891Z,9.41
2019-05-09T03:29:35.436Z,10.05
2019-05-09T03:38:17.905Z,9.90
2019-05-09T03:51:58.612Z,9.95
2019-05-09T04:57:51.293Z,11.91
2019-05-09T05:30:10.372Z,12.79
2019-05-09T05:43:40.536Z,12.46
2019-05-09T05:49:39.887Z,12.33
2019-05-09T05:56:28.829Z,12.37
2019-05-09T06:13:07.963Z,12.49
2019-05-09T06:15:41.639Z,12.60
2019-05-09T06:18:24.513Z,12.69
2019-05-09T06:20:58.452Z,12.83
2019-05-09T06:27:28.113Z,12.89
2019-05-09T06:30:01.067Z,12.71
2019-05-09T06:32:35.103Z,12.77
2019-05-09T06:45:48.652Z,13.08
2019-05-09T06:48:22.588Z,13.01
2019-05-09T06:54:48.718Z,12.94
2019-05-09T06:57:20.030Z,12.97
2019-05-09T06:59:57.891Z,13.04
2019-05-09T07:02:51.340Z,13.12
2019-05-09T07:05:29.097Z,13.27
2019-05-09T07:08:11.720Z,13.19
2019-05-09T07:10:45.387Z,13.26
2019-05-09T07:13:23.227Z,13.28
2019-05-09T07:15:54.429Z,13.08
2019-05-09T07:18:27.751Z,13.27
2019-05-09T07:21:00.628Z,13.29
2019-05-09T07:23:33.284Z,13.36
2019-05-09T07:26:17.684Z,13.39
2019-05-09T07:28:49.394Z,13.47
2019-05-09T07:31:22.142Z,13.47
2019-05-09T07:33:58.752Z,13.38
2019-05-09T07:36:30.105Z,13.54
2019-05-09T07:39:02.961Z,13.58
2019-05-09T07:41:39.447Z,13.59
2019-05-09T07:44:10.636Z,13.59
2019-05-09T07:46:43.329Z,13.71
2019-05-09T07:49:14.565Z,13.82
2019-05-09T07:51:47.635Z,13.86
2019-05-09T07:54:25.212Z,13.79
2019-05-09T07:56:52.768Z,13.79
2019-05-09T07:59:23.865Z,13.68
2019-05-09T08:01:54.909Z,13.81
2019-05-09T08:04:28.562Z,13.85
2019-05-09T08:07:02.899Z,14.00
2019-05-09T08:09:34.063Z,14.07
2019-05-09T08:12:07.370Z,14.15
2019-05-09T08:14:39.645Z,14.31
2019-05-09T08:17:18.246Z,14.35
2019-05-09T08:19:53.200Z,14.38
2019-05-09T08:22:31.806Z,14.39
2019-05-09T08:25:08.233Z,14.41
2019-05-09T08:27:38.770Z,14.52
2019-05-09T08:55:57.886Z,15.31
2019-05-09T09:02:21.864Z,15.41
2019-05-09T09:08:02.657Z,15.66
2019-05-09T09:34:31.981Z,16.25
2019-05-09T09:40:47.591Z,16.39
2019-05-09T09:50:38.410Z,16.88
2019-05-09T09:53:34.003Z,16.93
2019-05-09T09:56:05.135Z,16.79
2019-05-09T09:58:38.980Z,16.86
2019-05-09T10:01:11.825Z,16.86
2019-05-09T10:04:20.797Z,16.77
2019-05-09T10:06:58.236Z,16.81
2019-05-09T10:09:33.883Z,16.97
2019-05-09T10:12:18.051Z,17.08
2019-05-09T10:18:47.529Z,17.17
2019-05-09T10:29:57.795Z,17.35
2019-05-09T10:32:33.745Z,17.60
2019-05-09T10:50:43.141Z,18.04
2019-05-09T10:57:53.589Z,18.28
2019-05-09T11:15:13.108Z,18.26
2019-05-09T11:18:08.379Z,18.49
2019-05-09T11:24:46.564Z,18.42
2019-05-09T11:27:22.801Z,18.17
2019-05-09T11:33:34.922Z,18.09
2019-05-09T11:36:09.720Z,18.08
2019-05-09T11:42:38.955Z,18.17
2019-05-09T11:49:08.192Z,18.13
2019-05-09T11:55:27.479Z,17.80
2019-05-09T12:05:13.204Z,18.40
2019-05-09T12:07:42.427Z,18.39
2019-05-09T12:13:26.743Z,18.43
2019-05-09T12:16:01.186Z,18.46
2019-05-09T12:19:03.606Z,18.48
2019-05-09T12:21:19.629Z,18.26
2019-05-09T12:23:53.545Z,18.18
2019-05-09T12:26:24.613Z,18.24
2019-05-09T12:28:57.775Z,18.29
2019-05-09T12:31:30.167Z,18.19
2019-05-09T12:34:03.712Z,18.23
2019-05-09T12:36:35.706Z,18.13
2019-05-09T12:39:08.725Z,18.27
2019-05-09T12:41:42.087Z,18.27
2019-05-09T12:44:13.183Z,18.15
2019-05-09T12:46:45.547Z,18.11
2019-05-09T12:49:22.209Z,18.01
2019-05-09T12:51:58.861Z,17.93
2019-05-09T12:54:34.516Z,17.87
2019-05-09T12:57:07.926Z,17.85
2019-05-09T12:59:48.573Z,17.99
2019-05-09T13:02:11.355Z,18.00
2019-05-09T13:04:42.408Z,18.03
2019-05-09T13:07:14.309Z,18.13
2019-05-09T13:09:52.238Z,18.17
2019-05-09T13:12:43.079Z,18.16
2019-05-09T13:15:21.477Z,17.91
2019-05-09T13:17:52.595Z,17.89
2019-05-09T13:20:23.662Z,17.83
2019-05-09T13:22:58.847Z,18.02
2019-05-09T13:25:30.294Z,18.20
2019-05-09T13:28:01.776Z,18.28
2019-05-09T13:30:34.521Z,18.20
2019-05-09T13:33:10.562Z,18.17
2019-05-09T13:35:41.416Z,18.27
2019-05-09T13:38:13.406Z,18.22
2019-05-09T13:40:53.449Z,18.02
2019-05-09T13:43:20.447Z,18.13
2019-05-09T13:45:51.583Z,18.19
2019-05-09T13:48:37.837Z,17.79
2019-05-09T13:51:00.814Z,17.88
2019-05-09T13:53:33.579Z,17.81
2019-05-09T13:56:04.691Z,17.71
2019-05-09T13:58:38.286Z,17.84
2019-05-09T14:01:09.832Z,17.82
2019-05-09T14:03:40.884Z,17.75
2019-05-09T14:06:11.984Z,17.63
2019-05-09T14:08:43.934Z,17.61
2019-05-09T14:11:19.220Z,17.60
2019-05-09T14:13:48.734Z,17.67
2019-05-09T14:16:28.698Z,17.74
2019-05-09T14:19:23.972Z,17.70
2019-05-09T14:21:32.922Z,17.66
2019-05-09T14:24:15.178Z,17.71
2019-05-09T14:26:44.005Z,17.67
2019-05-09T14:29:20.123Z,17.62
2019-05-09T14:31:51.842Z,17.68
2019-05-09T14:34:22.066Z,17.75
2019-05-09T14:36:53.163Z,17.74
2019-05-09T14:39:27.678Z,17.84
2019-05-09T14:41:58.926Z,17.59
2019-05-09T14:44:31.524Z,17.50
2019-05-09T14:47:02.636Z,17.55
2019-05-09T14:49:43.287Z,17.64
2019-05-09T14:52:08.108Z,17.60
2019-05-09T14:54:42.613Z,17.46
2019-05-09T14:57:17.374Z,17.46
2019-05-09T14:59:48.041Z,17.32
2019-05-09T15:02:19.092Z,17.27
2019-05-09T15:04:50.186Z,17.03
2019-05-09T15:07:21.341Z,17.07
2019-05-09T15:09:54.025Z,17.15
2019-05-09T15:12:28.502Z,17.15
2019-05-09T15:14:59.889Z,16.99
2019-05-09T15:17:32.608Z,17.01
2019-05-09T15:20:04.718Z,16.95
2019-05-09T15:22:38.719Z,16.84
2019-05-09T15:25:12.056Z,16.85
2019-05-09T15:27:44.271Z,16.86
2019-05-09T15:30:18.859Z,16.89
2019-05-09T15:32:51.807Z,16.79
2019-05-09T15:35:22.577Z,16.71
2019-05-09T15:37:53.639Z,16.65
2019-05-09T15:40:28.198Z,16.64
2019-05-09T15:43:04.018Z,16.62
2019-05-09T15:45:40.896Z,16.59
2019-05-09T15:48:09.531Z,16.46
2019-05-09T15:50:42.314Z,16.42
2019-05-09T15:53:13.541Z,16.18
2019-05-09T15:55:58.888Z,16.23
2019-05-09T15:58:31.575Z,16.26
2019-05-09T16:01:04.371Z,16.18
2019-05-09T16:03:38.899Z,16.11
2019-05-09T16:06:12.428Z,16.07
2019-05-09T16:08:43.534Z,16.07
2019-05-09T16:11:18.483Z,15.99
2019-05-09T16:13:49.757Z,15.90
2019-05-09T16:16:21.222Z,15.87
2019-05-09T16:18:52.274Z,15.79
2019-05-09T16:21:24.759Z,15.72
2019-05-09T16:23:59.978Z,15.72
2019-05-09T16:26:37.573Z,15.63
2019-05-09T16:29:05.369Z,15.63
2019-05-09T16:31:38.768Z,15.57
2019-05-09T16:34:12.760Z,15.53
2019-05-09T16:36:52.653Z,15.49
2019-05-09T16:39:20.452Z,15.47
2019-05-09T16:41:54.724Z,15.48
2019-05-09T16:44:25.867Z,15.50
2019-05-09T16:47:04.422Z,15.52
2019-05-09T16:49:32.476Z,15.47
2019-05-09T16:52:03.757Z,15.48
2019-05-09T16:54:38.623Z,15.48
2019-05-09T16:57:13.184Z,15.50
2019-05-09T16:59:47.764Z,15.51
2019-05-09T17:02:24.798Z,15.54
2019-05-09T17:05:02.696Z,15.55
2019-05-09T17:07:34.907Z,15.50
2019-05-09T17:13:49.782Z,15.48
2019-05-09T17:16:28.487Z,15.41
2019-05-09T17:19:06.037Z,15.37
2019-05-09T17:21:50.663Z,15.38
2019-05-09T17:28:13.037Z,15.30
2019-05-09T17:30:49.341Z,15.20
2019-05-09T17:33:21.231Z,15.21
2019-05-09T17:35:57.819Z,15.17
2019-05-09T17:38:32.662Z,15.03
2019-05-09T17:41:08.452Z,15.04
2019-05-09T17:43:39.727Z,14.96
2019-05-09T17:46:12.730Z,14.77
2019-05-09T17:48:49.075Z,14.64
2019-05-09T17:51:33.058Z,14.51
2019-05-09T17:53:58.563Z,14.43
2019-05-09T17:56:50.028Z,14.48
2019-05-09T17:59:11.481Z,14.45
2019-05-09T18:01:48.246Z,14.42
2019-05-09T18:04:22.414Z,14.45
2019-05-09T18:07:00.801Z,14.48
2019-05-09T18:09:42.276Z,14.50
2019-05-09T18:12:22.520Z,14.43
2019-05-09T18:14:55.340Z,14.33
2019-05-09T18:17:40.544Z,14.26
2019-05-09T18:20:17.415Z,14.20
2019-05-09T18:22:52.195Z,14.19
2019-05-09T18:29:06.832Z,14.26
2019-05-09T18:31:41.800Z,14.16
2019-05-09T18:34:18.484Z,14.15
2019-05-09T18:36:58.611Z,14.17
2019-05-09T18:39:30.870Z,14.21
2019-05-09T18:42:05.014Z,14.25
2019-05-09T18:44:39.972Z,14.25
2019-05-09T18:47:13.315Z,14.24
2019-05-09T18:49:56.450Z,14.15
2019-05-09T18:52:25.995Z,14.02
2019-05-09T18:55:01.214Z,13.94
2019-05-09T18:57:43.939Z,13.89
2019-05-09T19:00:46.066Z,13.50
2019-05-09T19:03:16.705Z,13.36
2019-05-09T19:07:19.940Z,13.29
2019-05-09T19:08:42.738Z,13.21
2019-05-09T19:11:16.690Z,13.17
2019-05-09T19:14:04.437Z,13.20
2019-05-09T19:19:32.500Z,13.06
2019-05-09T19:25:09.802Z,13.00
2019-05-09T19:27:58.046Z,13.00
2019-05-09T19:33:09.786Z,12.67
2019-05-09T19:35:46.143Z,12.73
2019-05-09T19:38:29.672Z,12.74
2019-05-09T19:43:31.003Z,12.61
2019-05-09T19:46:03.778Z,12.58
2019-05-09T19:48:52.472Z,12.55
2019-05-09T19:51:25.890Z,12.57
2019-05-09T19:53:53.642Z,12.56
2019-05-09T19:56:36.380Z,12.54
2019-05-09T19:59:20.299Z,12.59
2019-05-09T20:02:13.872Z,12.61
2019-05-09T20:04:26.800Z,12.63
2019-05-09T20:07:07.914Z,12.59
2019-05-09T20:09:58.790Z,12.62
2019-05-09T20:12:37.541Z,12.60
2019-05-09T20:15:42.749Z,12.62
2019-05-09T20:17:47.753Z,12.65
2019-05-09T20:20:26.104Z,12.69
2019-05-09T20:23:07.761Z,12.70
2019-05-09T20:29:19.754Z,12.54
2019-05-09T20:31:59.527Z,12.57
2019-05-09T20:34:35.753Z,12.58
2019-05-09T20:37:26.362Z,12.59
2019-05-09T20:39:46.182Z,12.57
2019-05-09T20:42:36.449Z,12.49
2019-05-09T20:44:58.556Z,12.44
2019-05-09T20:47:31.369Z,12.39
2019-05-09T20:50:07.292Z,12.36
2019-05-09T20:52:45.992Z,12.38
2019-05-09T20:55:27.694Z,12.42
2019-05-09T20:58:12.847Z,12.36
2019-05-09T21:02:08.780Z,12.18
2019-05-09T21:03:22.764Z,12.16
2019-05-09T21:05:58.348Z,12.07
2019-05-09T21:08:38.004Z,11.92
2019-05-09T21:11:08.750Z,11.81
2019-05-09T21:13:48.966Z,11.77
2019-05-09T21:19:04.517Z,11.70
2019-05-09T21:19:39.024Z,11.73
2019-05-09T21:21:43.003Z,11.71
2019-05-09T21:24:19.210Z,11.63
2019-05-09T21:26:53.581Z,11.56
2019-05-09T21:29:29.706Z,11.58
2019-05-09T21:32:09.446Z,11.65
2019-05-09T21:49:26.724Z,11.58
2019-05-09T21:51:57.949Z,11.47
2019-05-09T21:54:30.367Z,11.46
2019-05-09T22:51:36.312Z,11.35
